sensor_id;sensor_type;location;lat;lon;timestamp;P1;durP1;ratioP1;P2;durP2;ratioP2
15706;SDS011;7953;54.302;10.128;2023-07-31T00:01:16;6.23;;;2.03;;
15706;SDS011;7953;54.302;10.128;2023-07-31T00:03:43;4.10;;;1.80;;
15706;SDS011;7953;54.302;10.128;2023-07-31T00:06:10;4.00;;;1.80;;
15706;SDS011;7953;54.302;10.128;2023-07-31T00:08:37;5.70;;;1.90;;
15706;SDS011;7953;54.302;10.128;2023-07-31T00:11:04;3.73;;;2.30;;
15706;SDS011;7953;54.302;10.128;2023-07-31T00:13:32;4.97;;;2.53;;
15706;SDS011;7953;54.302;10.128;2023-07-31T00:15:59;5.83;;;2.20;;
15706;SDS011;7953;54.302;10.128;2023-07-31T00:18:26;5.70;;;1.97;;
15706;SDS011;7953;54.302;10.128;2023-07-31T00:20:52;5.43;;;1.87;;
15706;SDS011;7953;54.302;10.128;2023-07-31T00:23:19;4.77;;;2.43;;
15706;SDS011;7953;54.302;10.128;2023-07-31T00:25:46;7.27;;;2.30;;
15706;SDS011;7953;54.302;10.128;2023-07-31T00:28:13;3.63;;;1.83;;
15706;SDS011;7953;54.302;10.128;2023-07-31T00:30:41;5.73;;;2.53;;
15706;SDS011;7953;54.302;10.128;2023-07-31T00:33:08;3.37;;;2.10;;
15706;SDS011;7953;54.302;10.128;2023-07-31T00:35:35;6.17;;;2.10;;
15706;SDS011;7953;54.302;10.128;2023-07-31T00:38:02;9.17;;;2.90;;
15706;SDS011;7953;54.302;10.128;2023-07-31T00:40:28;5.43;;;2.10;;
15706;SDS011;7953;54.302;10.128;2023-07-31T00:42:55;5.77;;;1.97;;
15706;SDS011;7953;54.302;10.128;2023-07-31T00:45:22;6.97;;;2.00;;
15706;SDS011;7953;54.302;10.128;2023-07-31T00:47:53;4.03;;;2.00;;
15706;SDS011;7953;54.302;10.128;2023-07-31T00:50:20;6.57;;;2.13;;
15706;SDS011;7953;54.302;10.128;2023-07-31T00:52:50;6.87;;;2.10;;
15706;SDS011;7953;54.302;10.128;2023-07-31T00:55:17;4.17;;;2.00;;
15706;SDS011;7953;54.302;10.128;2023-07-31T00:57:44;3.60;;;1.80;;
15706;SDS011;7953;54.302;10.128;2023-07-31T01:00:11;5.57;;;1.90;;
15706;SDS011;7953;54.302;10.128;2023-07-31T01:02:38;3.43;;;1.80;;
15706;SDS011;7953;54.302;10.128;2023-07-31T01:05:07;5.17;;;1.80;;
15706;SDS011;7953;54.302;10.128;2023-07-31T01:07:35;7.40;;;2.23;;
15706;SDS011;7953;54.302;10.128;2023-07-31T01:10:10;1.80;;;1.60;;
15706;SDS011;7953;54.302;10.128;2023-07-31T01:12:42;3.80;;;1.60;;
15706;SDS011;7953;54.302;10.128;2023-07-31T01:15:11;2.93;;;1.50;;
15706;SDS011;7953;54.302;10.128;2023-07-31T01:17:40;3.90;;;1.63;;
15706;SDS011;7953;54.302;10.128;2023-07-31T01:20:10;2.17;;;1.50;;
15706;SDS011;7953;54.302;10.128;2023-07-31T01:22:47;3.97;;;1.50;;
15706;SDS011;7953;54.302;10.128;2023-07-31T01:25:30;4.43;;;1.60;;
15706;SDS011;7953;54.302;10.128;2023-07-31T01:28:10;3.17;;;1.30;;
15706;SDS011;7953;54.302;10.128;2023-07-31T01:30:41;3.60;;;1.53;;
15706;SDS011;7953;54.302;10.128;2023-07-31T01:33:10;4.03;;;1.43;;
15706;SDS011;7953;54.302;10.128;2023-07-31T01:35:37;5.40;;;1.60;;
15706;SDS011;7953;54.302;10.128;2023-07-31T01:38:06;3.43;;;1.43;;
15706;SDS011;7953;54.302;10.128;2023-07-31T01:40:33;2.67;;;1.20;;
15706;SDS011;7953;54.302;10.128;2023-07-31T01:42:59;2.67;;;1.00;;
15706;SDS011;7953;54.302;10.128;2023-07-31T01:45:28;5.53;;;1.13;;
15706;SDS011;7953;54.302;10.128;2023-07-31T01:47:54;1.70;;;1.00;;
15706;SDS011;7953;54.302;10.128;2023-07-31T01:50:21;3.30;;;1.10;;
15706;SDS011;7953;54.302;10.128;2023-07-31T01:52:48;2.23;;;1.00;;
15706;SDS011;7953;54.302;10.128;2023-07-31T01:55:15;2.03;;;0.90;;
15706;SDS011;7953;54.302;10.128;2023-07-31T01:57:42;3.87;;;1.23;;
15706;SDS011;7953;54.302;10.128;2023-07-31T02:00:09;2.17;;;1.30;;
15706;SDS011;7953;54.302;10.128;2023-07-31T02:02:38;2.63;;;1.10;;
15706;SDS011;7953;54.302;10.128;2023-07-31T02:05:05;2.83;;;1.27;;
15706;SDS011;7953;54.302;10.128;2023-07-31T02:07:32;4.37;;;1.83;;
15706;SDS011;7953;54.302;10.128;2023-07-31T02:09:59;2.43;;;1.50;;
15706;SDS011;7953;54.302;10.128;2023-07-31T02:12:26;3.10;;;1.43;;
15706;SDS011;7953;54.302;10.128;2023-07-31T02:14:55;4.40;;;1.60;;
15706;SDS011;7953;54.302;10.128;2023-07-31T02:17:22;3.73;;;1.40;;
15706;SDS011;7953;54.302;10.128;2023-07-31T02:19:50;2.43;;;1.60;;
15706;SDS011;7953;54.302;10.128;2023-07-31T02:22:17;2.63;;;1.20;;
15706;SDS011;7953;54.302;10.128;2023-07-31T02:24:44;5.30;;;1.60;;
15706;SDS011;7953;54.302;10.128;2023-07-31T02:27:11;2.87;;;1.63;;
15706;SDS011;7953;54.302;10.128;2023-07-31T02:29:38;3.10;;;1.57;;
15706;SDS011;7953;54.302;10.128;2023-07-31T02:32:05;2.87;;;1.57;;
15706;SDS011;7953;54.302;10.128;2023-07-31T02:34:32;2.63;;;1.97;;
15706;SDS011;7953;54.302;10.128;2023-07-31T02:37:00;3.40;;;1.77;;
15706;SDS011;7953;54.302;10.128;2023-07-31T02:39:27;3.53;;;1.83;;
15706;SDS011;7953;54.302;10.128;2023-07-31T02:41:54;2.50;;;1.80;;
15706;SDS011;7953;54.302;10.128;2023-07-31T02:44:21;3.17;;;2.03;;
15706;SDS011;7953;54.302;10.128;2023-07-31T02:46:48;4.27;;;2.00;;
15706;SDS011;7953;54.302;10.128;2023-07-31T02:49:15;5.60;;;2.00;;
15706;SDS011;7953;54.302;10.128;2023-07-31T02:51:42;6.20;;;1.97;;
15706;SDS011;7953;54.302;10.128;2023-07-31T02:54:10;5.63;;;2.40;;
15706;SDS011;7953;54.302;10.128;2023-07-31T02:56:37;6.93;;;2.60;;
15706;SDS011;7953;54.302;10.128;2023-07-31T02:59:03;3.53;;;2.53;;
15706;SDS011;7953;54.302;10.128;2023-07-31T03:01:30;4.23;;;2.37;;
15706;SDS011;7953;54.302;10.128;2023-07-31T03:03:57;4.33;;;2.60;;
15706;SDS011;7953;54.302;10.128;2023-07-31T03:06:24;3.47;;;2.10;;
15706;SDS011;7953;54.302;10.128;2023-07-31T03:08:52;6.93;;;2.47;;
15706;SDS011;7953;54.302;10.128;2023-07-31T03:11:20;9.17;;;3.03;;
15706;SDS011;7953;54.302;10.128;2023-07-31T03:13:47;4.47;;;2.50;;
15706;SDS011;7953;54.302;10.128;2023-07-31T03:16:14;4.60;;;2.53;;
15706;SDS011;7953;54.302;10.128;2023-07-31T03:18:40;4.60;;;2.33;;
15706;SDS011;7953;54.302;10.128;2023-07-31T03:21:07;5.67;;;3.03;;
15706;SDS011;7953;54.302;10.128;2023-07-31T03:23:34;5.30;;;2.50;;
15706;SDS011;7953;54.302;10.128;2023-07-31T03:26:02;6.20;;;3.27;;
15706;SDS011;7953;54.302;10.128;2023-07-31T03:28:31;5.70;;;3.07;;
15706;SDS011;7953;54.302;10.128;2023-07-31T03:30:57;9.20;;;3.37;;
15706;SDS011;7953;54.302;10.128;2023-07-31T03:33:24;8.47;;;4.07;;
15706;SDS011;7953;54.302;10.128;2023-07-31T03:35:51;4.80;;;3.87;;
15706;SDS011;7953;54.302;10.128;2023-07-31T03:38:18;9.80;;;4.60;;
15706;SDS011;7953;54.302;10.128;2023-07-31T03:40:45;4.83;;;4.23;;
15706;SDS011;7953;54.302;10.128;2023-07-31T03:43:12;13.93;;;4.60;;
15706;SDS011;7953;54.302;10.128;2023-07-31T03:45:41;7.93;;;4.73;;
15706;SDS011;7953;54.302;10.128;2023-07-31T03:48:08;10.93;;;4.83;;
15706;SDS011;7953;54.302;10.128;2023-07-31T03:50:35;14.70;;;5.57;;
15706;SDS011;7953;54.302;10.128;2023-07-31T03:53:01;8.07;;;4.97;;
15706;SDS011;7953;54.302;10.128;2023-07-31T03:55:28;10.27;;;6.03;;
15706;SDS011;7953;54.302;10.128;2023-07-31T03:57:55;8.70;;;5.40;;
15706;SDS011;7953;54.302;10.128;2023-07-31T04:00:22;7.70;;;5.40;;
15706;SDS011;7953;54.302;10.128;2023-07-31T04:02:50;11.27;;;5.43;;
15706;SDS011;7953;54.302;10.128;2023-07-31T04:05:17;11.77;;;5.70;;
15706;SDS011;7953;54.302;10.128;2023-07-31T04:07:44;9.87;;;5.67;;
15706;SDS011;7953;54.302;10.128;2023-07-31T04:10:11;10.43;;;6.93;;
15706;SDS011;7953;54.302;10.128;2023-07-31T04:12:38;9.50;;;6.00;;
15706;SDS011;7953;54.302;10.128;2023-07-31T04:15:05;9.90;;;6.63;;
15706;SDS011;7953;54.302;10.128;2023-07-31T04:17:32;11.00;;;5.67;;
15706;SDS011;7953;54.302;10.128;2023-07-31T04:20:00;9.23;;;6.13;;
15706;SDS011;7953;54.302;10.128;2023-07-31T04:22:27;16.10;;;6.77;;
15706;SDS011;7953;54.302;10.128;2023-07-31T04:24:54;10.50;;;5.97;;
15706;SDS011;7953;54.302;10.128;2023-07-31T04:27:21;8.27;;;6.50;;
15706;SDS011;7953;54.302;10.128;2023-07-31T04:29:48;10.07;;;6.47;;
15706;SDS011;7953;54.302;10.128;2023-07-31T04:32:16;14.30;;;6.77;;
15706;SDS011;7953;54.302;10.128;2023-07-31T04:34:43;10.07;;;6.60;;
15706;SDS011;7953;54.302;10.128;2023-07-31T04:37:11;11.73;;;6.53;;
15706;SDS011;7953;54.302;10.128;2023-07-31T04:39:39;11.80;;;6.50;;
15706;SDS011;7953;54.302;10.128;2023-07-31T04:42:06;11.63;;;6.87;;
15706;SDS011;7953;54.302;10.128;2023-07-31T04:44:33;11.97;;;7.13;;
15706;SDS011;7953;54.302;10.128;2023-07-31T04:46:59;7.70;;;6.17;;
15706;SDS011;7953;54.302;10.128;2023-07-31T04:49:27;11.87;;;6.63;;
15706;SDS011;7953;54.302;10.128;2023-07-31T04:51:54;10.83;;;6.73;;
15706;SDS011;7953;54.302;10.128;2023-07-31T04:54:22;10.60;;;7.33;;
15706;SDS011;7953;54.302;10.128;2023-07-31T04:56:49;9.80;;;6.17;;
15706;SDS011;7953;54.302;10.128;2023-07-31T04:59:16;9.57;;;6.23;;
15706;SDS011;7953;54.302;10.128;2023-07-31T05:01:42;12.40;;;6.90;;
15706;SDS011;7953;54.302;10.128;2023-07-31T05:04:12;12.53;;;7.17;;
15706;SDS011;7953;54.302;10.128;2023-07-31T05:06:39;11.70;;;6.60;;
15706;SDS011;7953;54.302;10.128;2023-07-31T05:09:06;11.57;;;7.57;;
15706;SDS011;7953;54.302;10.128;2023-07-31T05:11:35;11.40;;;7.23;;
15706;SDS011;7953;54.302;10.128;2023-07-31T05:14:02;8.30;;;7.50;;
15706;SDS011;7953;54.302;10.128;2023-07-31T05:16:29;12.00;;;8.33;;
15706;SDS011;7953;54.302;10.128;2023-07-31T05:18:56;11.03;;;7.20;;
15706;SDS011;7953;54.302;10.128;2023-07-31T05:21:23;11.97;;;7.80;;
15706;SDS011;7953;54.302;10.128;2023-07-31T05:23:50;10.43;;;7.73;;
15706;SDS011;7953;54.302;10.128;2023-07-31T05:26:16;11.27;;;7.70;;
15706;SDS011;7953;54.302;10.128;2023-07-31T05:28:45;9.83;;;7.40;;
15706;SDS011;7953;54.302;10.128;2023-07-31T05:31:12;12.93;;;7.67;;
15706;SDS011;7953;54.302;10.128;2023-07-31T05:33:38;10.90;;;7.43;;
15706;SDS011;7953;54.302;10.128;2023-07-31T05:36:05;12.17;;;7.97;;
15706;SDS011;7953;54.302;10.128;2023-07-31T05:38:32;9.87;;;7.77;;
15706;SDS011;7953;54.302;10.128;2023-07-31T05:40:59;9.07;;;7.00;;
15706;SDS011;7953;54.302;10.128;2023-07-31T05:43:26;9.13;;;7.50;;
15706;SDS011;7953;54.302;10.128;2023-07-31T05:45:54;12.13;;;7.70;;
15706;SDS011;7953;54.302;10.128;2023-07-31T05:48:21;10.80;;;8.03;;
15706;SDS011;7953;54.302;10.128;2023-07-31T05:50:48;8.10;;;6.60;;
15706;SDS011;7953;54.302;10.128;2023-07-31T05:53:15;9.00;;;6.70;;
15706;SDS011;7953;54.302;10.128;2023-07-31T05:55:41;9.67;;;7.20;;
15706;SDS011;7953;54.302;10.128;2023-07-31T05:58:08;9.83;;;6.73;;
15706;SDS011;7953;54.302;10.128;2023-07-31T06:00:35;11.40;;;6.93;;
15706;SDS011;7953;54.302;10.128;2023-07-31T06:03:03;10.20;;;7.17;;
15706;SDS011;7953;54.302;10.128;2023-07-31T06:05:30;8.13;;;6.50;;
15706;SDS011;7953;54.302;10.128;2023-07-31T06:07:57;8.47;;;6.47;;
15706;SDS011;7953;54.302;10.128;2023-07-31T06:10:24;7.63;;;6.90;;
15706;SDS011;7953;54.302;10.128;2023-07-31T06:12:51;10.97;;;6.90;;
15706;SDS011;7953;54.302;10.128;2023-07-31T06:15:19;9.93;;;6.57;;
15706;SDS011;7953;54.302;10.128;2023-07-31T06:17:46;9.13;;;6.47;;
15706;SDS011;7953;54.302;10.128;2023-07-31T06:20:14;6.90;;;6.20;;
15706;SDS011;7953;54.302;10.128;2023-07-31T06:22:41;6.97;;;6.27;;
15706;SDS011;7953;54.302;10.128;2023-07-31T06:25:08;8.77;;;6.40;;
15706;SDS011;7953;54.302;10.128;2023-07-31T06:27:35;9.67;;;6.10;;
15706;SDS011;7953;54.302;10.128;2023-07-31T06:30:02;10.87;;;6.30;;
15706;SDS011;7953;54.302;10.128;2023-07-31T06:32:30;8.23;;;5.23;;
15706;SDS011;7953;54.302;10.128;2023-07-31T06:34:57;6.17;;;5.47;;
15706;SDS011;7953;54.302;10.128;2023-07-31T06:37:25;9.60;;;5.67;;
15706;SDS011;7953;54.302;10.128;2023-07-31T06:39:52;7.57;;;5.37;;
15706;SDS011;7953;54.302;10.128;2023-07-31T06:42:18;6.30;;;5.60;;
15706;SDS011;7953;54.302;10.128;2023-07-31T06:44:46;6.13;;;4.47;;
15706;SDS011;7953;54.302;10.128;2023-07-31T06:47:12;4.77;;;3.90;;
15706;SDS011;7953;54.302;10.128;2023-07-31T06:49:39;4.43;;;4.00;;
15706;SDS011;7953;54.302;10.128;2023-07-31T06:52:06;4.93;;;3.73;;
15706;SDS011;7953;54.302;10.128;2023-07-31T06:54:36;6.27;;;4.70;;
15706;SDS011;7953;54.302;10.128;2023-07-31T06:57:03;5.00;;;4.50;;
15706;SDS011;7953;54.302;10.128;2023-07-31T06:59:30;4.40;;;4.00;;
15706;SDS011;7953;54.302;10.128;2023-07-31T07:01:57;5.17;;;4.40;;
15706;SDS011;7953;54.302;10.128;2023-07-31T07:04:24;4.33;;;3.33;;
15706;SDS011;7953;54.302;10.128;2023-07-31T07:06:51;3.87;;;3.57;;
15706;SDS011;7953;54.302;10.128;2023-07-31T07:09:18;3.53;;;3.23;;
15706;SDS011;7953;54.302;10.128;2023-07-31T07:11:47;4.07;;;3.20;;
15706;SDS011;7953;54.302;10.128;2023-07-31T07:14:14;4.77;;;3.40;;
15706;SDS011;7953;54.302;10.128;2023-07-31T07:16:40;4.47;;;2.67;;
15706;SDS011;7953;54.302;10.128;2023-07-31T07:19:07;2.63;;;2.43;;
15706;SDS011;7953;54.302;10.128;2023-07-31T07:21:34;4.47;;;2.60;;
15706;SDS011;7953;54.302;10.128;2023-07-31T07:24:01;2.23;;;2.10;;
15706;SDS011;7953;54.302;10.128;2023-07-31T07:26:29;3.40;;;2.33;;
15706;SDS011;7953;54.302;10.128;2023-07-31T07:28:57;1.93;;;1.83;;
15706;SDS011;7953;54.302;10.128;2023-07-31T07:31:26;3.13;;;2.00;;
15706;SDS011;7953;54.302;10.128;2023-07-31T07:33:53;2.20;;;1.87;;
15706;SDS011;7953;54.302;10.128;2023-07-31T07:36:20;2.37;;;2.07;;
15706;SDS011;7953;54.302;10.128;2023-07-31T07:38:47;1.90;;;1.27;;
15706;SDS011;7953;54.302;10.128;2023-07-31T07:41:14;1.70;;;1.30;;
15706;SDS011;7953;54.302;10.128;2023-07-31T07:43:41;1.43;;;1.27;;
15706;SDS011;7953;54.302;10.128;2023-07-31T07:46:09;1.33;;;1.10;;
15706;SDS011;7953;54.302;10.128;2023-07-31T07:48:36;2.40;;;1.30;;
15706;SDS011;7953;54.302;10.128;2023-07-31T07:51:03;1.80;;;1.40;;
15706;SDS011;7953;54.302;10.128;2023-07-31T07:53:30;1.37;;;1.00;;
15706;SDS011;7953;54.302;10.128;2023-07-31T07:55:57;2.30;;;1.07;;
15706;SDS011;7953;54.302;10.128;2023-07-31T07:58:24;1.20;;;1.10;;
15706;SDS011;7953;54.302;10.128;2023-07-31T08:00:50;0.90;;;0.83;;
15706;SDS011;7953;54.302;10.128;2023-07-31T08:03:19;1.37;;;1.27;;
15706;SDS011;7953;54.302;10.128;2023-07-31T08:05:46;1.83;;;0.90;;
15706;SDS011;7953;54.302;10.128;2023-07-31T08:08:14;0.87;;;0.87;;
15706;SDS011;7953;54.302;10.128;2023-07-31T08:10:42;0.80;;;0.80;;
15706;SDS011;7953;54.302;10.128;2023-07-31T08:13:09;0.97;;;0.87;;
15706;SDS011;7953;54.302;10.128;2023-07-31T08:15:37;1.20;;;0.67;;
15706;SDS011;7953;54.302;10.128;2023-07-31T08:18:04;0.70;;;0.70;;
15706;SDS011;7953;54.302;10.128;2023-07-31T08:20:32;0.70;;;0.70;;
15706;SDS011;7953;54.302;10.128;2023-07-31T08:22:59;0.73;;;0.73;;
15706;SDS011;7953;54.302;10.128;2023-07-31T08:25:26;1.37;;;0.90;;
15706;SDS011;7953;54.302;10.128;2023-07-31T08:27:52;0.80;;;0.80;;
15706;SDS011;7953;54.302;10.128;2023-07-31T08:30:20;0.90;;;0.90;;
15706;SDS011;7953;54.302;10.128;2023-07-31T08:32:48;1.20;;;0.80;;
15706;SDS011;7953;54.302;10.128;2023-07-31T08:35:15;1.03;;;0.80;;
15706;SDS011;7953;54.302;10.128;2023-07-31T08:37:43;1.20;;;0.97;;
15706;SDS011;7953;54.302;10.128;2023-07-31T08:40:10;1.40;;;1.13;;
15706;SDS011;7953;54.302;10.128;2023-07-31T08:42:43;0.90;;;0.90;;
15706;SDS011;7953;54.302;10.128;2023-07-31T08:45:11;1.30;;;1.00;;
15706;SDS011;7953;54.302;10.128;2023-07-31T08:47:40;2.30;;;0.80;;
15706;SDS011;7953;54.302;10.128;2023-07-31T08:50:08;1.57;;;1.43;;
15706;SDS011;7953;54.302;10.128;2023-07-31T08:52:36;1.50;;;1.37;;
15706;SDS011;7953;54.302;10.128;2023-07-31T08:55:05;1.77;;;1.60;;
15706;SDS011;7953;54.302;10.128;2023-07-31T08:57:34;2.13;;;1.83;;
15706;SDS011;7953;54.302;10.128;2023-07-31T09:00:02;2.50;;;1.80;;
15706;SDS011;7953;54.302;10.128;2023-07-31T09:02:31;5.27;;;3.60;;
15706;SDS011;7953;54.302;10.128;2023-07-31T09:05:04;2.20;;;1.53;;
15706;SDS011;7953;54.302;10.128;2023-07-31T09:07:33;1.23;;;1.13;;
15706;SDS011;7953;54.302;10.128;2023-07-31T09:10:00;1.43;;;1.33;;
15706;SDS011;7953;54.302;10.128;2023-07-31T09:12:29;1.20;;;1.10;;
15706;SDS011;7953;54.302;10.128;2023-07-31T09:14:56;1.57;;;1.20;;
15706;SDS011;7953;54.302;10.128;2023-07-31T09:17:29;1.40;;;1.30;;
15706;SDS011;7953;54.302;10.128;2023-07-31T09:19:57;1.90;;;1.10;;
15706;SDS011;7953;54.302;10.128;2023-07-31T09:22:38;1.43;;;1.30;;
15706;SDS011;7953;54.302;10.128;2023-07-31T09:25:13;2.07;;;1.80;;
15706;SDS011;7953;54.302;10.128;2023-07-31T09:27:50;3.10;;;2.10;;
15706;SDS011;7953;54.302;10.128;2023-07-31T09:30:20;2.07;;;1.80;;
15706;SDS011;7953;54.302;10.128;2023-07-31T09:32:48;2.50;;;1.40;;
15706;SDS011;7953;54.302;10.128;2023-07-31T09:35:18;2.47;;;2.00;;
15706;SDS011;7953;54.302;10.128;2023-07-31T09:37:50;2.10;;;1.50;;
15706;SDS011;7953;54.302;10.128;2023-07-31T09:40:27;2.17;;;1.97;;
15706;SDS011;7953;54.302;10.128;2023-07-31T09:43:00;2.33;;;1.60;;
15706;SDS011;7953;54.302;10.128;2023-07-31T09:45:28;2.27;;;1.50;;
15706;SDS011;7953;54.302;10.128;2023-07-31T09:47:55;2.60;;;1.87;;
15706;SDS011;7953;54.302;10.128;2023-07-31T09:50:23;1.80;;;1.70;;
15706;SDS011;7953;54.302;10.128;2023-07-31T09:52:51;1.77;;;1.50;;
15706;SDS011;7953;54.302;10.128;2023-07-31T09:55:18;2.43;;;1.73;;
15706;SDS011;7953;54.302;10.128;2023-07-31T09:57:45;2.90;;;1.80;;
15706;SDS011;7953;54.302;10.128;2023-07-31T10:00:16;2.93;;;2.50;;
15706;SDS011;7953;54.302;10.128;2023-07-31T10:02:44;5.40;;;4.50;;
15706;SDS011;7953;54.302;10.128;2023-07-31T10:05:12;4.53;;;3.20;;
15706;SDS011;7953;54.302;10.128;2023-07-31T10:07:42;5.93;;;4.50;;
15706;SDS011;7953;54.302;10.128;2023-07-31T10:10:11;5.13;;;4.10;;
15706;SDS011;7953;54.302;10.128;2023-07-31T10:12:40;3.90;;;3.50;;
15706;SDS011;7953;54.302;10.128;2023-07-31T10:15:08;2.60;;;2.07;;
15706;SDS011;7953;54.302;10.128;2023-07-31T10:17:36;4.20;;;3.17;;
15706;SDS011;7953;54.302;10.128;2023-07-31T10:20:04;3.37;;;3.03;;
15706;SDS011;7953;54.302;10.128;2023-07-31T10:22:33;8.93;;;5.27;;
15706;SDS011;7953;54.302;10.128;2023-07-31T10:25:01;6.23;;;3.73;;
15706;SDS011;7953;54.302;10.128;2023-07-31T10:27:28;4.57;;;3.03;;
15706;SDS011;7953;54.302;10.128;2023-07-31T10:29:55;11.63;;;4.17;;
15706;SDS011;7953;54.302;10.128;2023-07-31T10:32:24;9.47;;;5.53;;
15706;SDS011;7953;54.302;10.128;2023-07-31T10:34:54;8.63;;;6.10;;
15706;SDS011;7953;54.302;10.128;2023-07-31T10:37:22;5.00;;;3.77;;
15706;SDS011;7953;54.302;10.128;2023-07-31T10:40:00;4.00;;;3.03;;
15706;SDS011;7953;54.302;10.128;2023-07-31T10:42:32;4.33;;;2.50;;
15706;SDS011;7953;54.302;10.128;2023-07-31T10:45:01;7.53;;;3.87;;
15706;SDS011;7953;54.302;10.128;2023-07-31T10:47:30;3.40;;;2.37;;
15706;SDS011;7953;54.302;10.128;2023-07-31T10:50:12;3.37;;;3.07;;
15706;SDS011;7953;54.302;10.128;2023-07-31T10:52:49;6.13;;;3.73;;
15706;SDS011;7953;54.302;10.128;2023-07-31T10:55:30;4.33;;;3.93;;
15706;SDS011;7953;54.302;10.128;2023-07-31T10:58:05;4.80;;;4.30;;
15706;SDS011;7953;54.302;10.128;2023-07-31T11:00:33;4.10;;;3.70;;
15706;SDS011;7953;54.302;10.128;2023-07-31T11:03:03;3.43;;;2.90;;
15706;SDS011;7953;54.302;10.128;2023-07-31T11:05:49;2.33;;;2.13;;
15706;SDS011;7953;54.302;10.128;2023-07-31T11:08:18;2.27;;;2.07;;
15706;SDS011;7953;54.302;10.128;2023-07-31T11:10:47;3.63;;;2.67;;
15706;SDS011;7953;54.302;10.128;2023-07-31T11:13:16;3.77;;;2.30;;
15706;SDS011;7953;54.302;10.128;2023-07-31T11:15:43;5.57;;;4.17;;
15706;SDS011;7953;54.302;10.128;2023-07-31T11:18:09;8.10;;;5.73;;
15706;SDS011;7953;54.302;10.128;2023-07-31T11:20:37;2.83;;;2.50;;
15706;SDS011;7953;54.302;10.128;2023-07-31T11:23:07;3.90;;;2.73;;
15706;SDS011;7953;54.302;10.128;2023-07-31T11:25:35;11.83;;;5.60;;
15706;SDS011;7953;54.302;10.128;2023-07-31T11:28:03;4.00;;;2.53;;
15706;SDS011;7953;54.302;10.128;2023-07-31T11:30:31;10.90;;;6.57;;
15706;SDS011;7953;54.302;10.128;2023-07-31T11:32:59;5.60;;;4.07;;
15706;SDS011;7953;54.302;10.128;2023-07-31T11:35:28;5.00;;;3.63;;
15706;SDS011;7953;54.302;10.128;2023-07-31T11:37:55;3.40;;;2.73;;
15706;SDS011;7953;54.302;10.128;2023-07-31T11:40:23;2.53;;;2.23;;
15706;SDS011;7953;54.302;10.128;2023-07-31T11:42:54;3.80;;;2.87;;
15706;SDS011;7953;54.302;10.128;2023-07-31T11:45:24;2.50;;;2.00;;
15706;SDS011;7953;54.302;10.128;2023-07-31T11:47:53;3.63;;;2.57;;
15706;SDS011;7953;54.302;10.128;2023-07-31T11:50:22;4.77;;;3.90;;
15706;SDS011;7953;54.302;10.128;2023-07-31T11:52:51;3.27;;;2.97;;
15706;SDS011;7953;54.302;10.128;2023-07-31T11:55:21;4.40;;;3.53;;
15706;SDS011;7953;54.302;10.128;2023-07-31T11:57:50;4.40;;;3.60;;
15706;SDS011;7953;54.302;10.128;2023-07-31T12:00:18;4.73;;;2.60;;
15706;SDS011;7953;54.302;10.128;2023-07-31T12:02:46;3.60;;;2.70;;
15706;SDS011;7953;54.302;10.128;2023-07-31T12:05:13;3.40;;;2.13;;
15706;SDS011;7953;54.302;10.128;2023-07-31T12:07:44;2.80;;;2.47;;
15706;SDS011;7953;54.302;10.128;2023-07-31T12:10:22;3.87;;;3.20;;
15706;SDS011;7953;54.302;10.128;2023-07-31T12:13:02;2.97;;;2.67;;
15706;SDS011;7953;54.302;10.128;2023-07-31T12:15:32;7.90;;;7.30;;
15706;SDS011;7953;54.302;10.128;2023-07-31T12:17:59;5.83;;;5.27;;
15706;SDS011;7953;54.302;10.128;2023-07-31T12:20:26;4.47;;;3.23;;
15706;SDS011;7953;54.302;10.128;2023-07-31T12:22:56;3.50;;;3.20;;
15706;SDS011;7953;54.302;10.128;2023-07-31T12:25:29;4.77;;;4.27;;
15706;SDS011;7953;54.302;10.128;2023-07-31T12:27:57;4.17;;;3.57;;
15706;SDS011;7953;54.302;10.128;2023-07-31T12:30:27;5.40;;;5.00;;
15706;SDS011;7953;54.302;10.128;2023-07-31T12:32:55;4.07;;;3.40;;
15706;SDS011;7953;54.302;10.128;2023-07-31T12:35:21;3.23;;;3.00;;
15706;SDS011;7953;54.302;10.128;2023-07-31T12:37:48;3.40;;;3.10;;
15706;SDS011;7953;54.302;10.128;2023-07-31T12:40:15;2.43;;;2.23;;
15706;SDS011;7953;54.302;10.128;2023-07-31T12:42:43;2.20;;;2.00;;
15706;SDS011;7953;54.302;10.128;2023-07-31T12:45:10;2.13;;;1.70;;
15706;SDS011;7953;54.302;10.128;2023-07-31T12:47:37;2.73;;;1.57;;
15706;SDS011;7953;54.302;10.128;2023-07-31T12:50:05;3.13;;;2.27;;
15706;SDS011;7953;54.302;10.128;2023-07-31T12:52:32;2.53;;;2.30;;
15706;SDS011;7953;54.302;10.128;2023-07-31T12:54:59;1.90;;;1.80;;
15706;SDS011;7953;54.302;10.128;2023-07-31T12:57:26;2.30;;;2.10;;
15706;SDS011;7953;54.302;10.128;2023-07-31T12:59:54;3.00;;;2.70;;
15706;SDS011;7953;54.302;10.128;2023-07-31T13:02:21;2.03;;;1.60;;
15706;SDS011;7953;54.302;10.128;2023-07-31T13:04:49;2.13;;;1.60;;
15706;SDS011;7953;54.302;10.128;2023-07-31T13:07:16;1.40;;;1.30;;
15706;SDS011;7953;54.302;10.128;2023-07-31T13:09:43;1.67;;;1.37;;
15706;SDS011;7953;54.302;10.128;2023-07-31T13:12:10;1.77;;;1.47;;
15706;SDS011;7953;54.302;10.128;2023-07-31T13:14:37;1.93;;;1.73;;
15706;SDS011;7953;54.302;10.128;2023-07-31T13:17:05;1.60;;;1.50;;
15706;SDS011;7953;54.302;10.128;2023-07-31T13:19:32;1.67;;;1.50;;
15706;SDS011;7953;54.302;10.128;2023-07-31T13:21:59;1.67;;;1.53;;
15706;SDS011;7953;54.302;10.128;2023-07-31T13:24:26;2.23;;;1.47;;
15706;SDS011;7953;54.302;10.128;2023-07-31T13:26:53;2.63;;;1.33;;
15706;SDS011;7953;54.302;10.128;2023-07-31T13:29:20;1.60;;;1.50;;
15706;SDS011;7953;54.302;10.128;2023-07-31T13:31:47;1.13;;;1.07;;
15706;SDS011;7953;54.302;10.128;2023-07-31T13:34:15;1.23;;;1.13;;
15706;SDS011;7953;54.302;10.128;2023-07-31T13:36:42;1.30;;;1.20;;
15706;SDS011;7953;54.302;10.128;2023-07-31T13:39:09;1.43;;;1.20;;
15706;SDS011;7953;54.302;10.128;2023-07-31T13:41:36;4.10;;;2.40;;
15706;SDS011;7953;54.302;10.128;2023-07-31T13:44:03;1.97;;;1.67;;
15706;SDS011;7953;54.302;10.128;2023-07-31T13:46:29;1.87;;;1.53;;
15706;SDS011;7953;54.302;10.128;2023-07-31T13:48:57;1.47;;;1.37;;
15706;SDS011;7953;54.302;10.128;2023-07-31T13:51:26;1.90;;;1.20;;
15706;SDS011;7953;54.302;10.128;2023-07-31T13:53:53;0.90;;;0.90;;
15706;SDS011;7953;54.302;10.128;2023-07-31T13:56:20;0.90;;;0.90;;
15706;SDS011;7953;54.302;10.128;2023-07-31T13:58:47;0.87;;;0.87;;
15706;SDS011;7953;54.302;10.128;2023-07-31T14:01:14;1.00;;;0.90;;
15706;SDS011;7953;54.302;10.128;2023-07-31T14:03:40;1.20;;;1.10;;
15706;SDS011;7953;54.302;10.128;2023-07-31T14:06:07;1.70;;;1.60;;
15706;SDS011;7953;54.302;10.128;2023-07-31T14:08:36;1.13;;;1.03;;
15706;SDS011;7953;54.302;10.128;2023-07-31T14:11:02;1.00;;;0.90;;
15706;SDS011;7953;54.302;10.128;2023-07-31T14:13:29;1.17;;;0.90;;
15706;SDS011;7953;54.302;10.128;2023-07-31T14:15:56;1.53;;;1.10;;
15706;SDS011;7953;54.302;10.128;2023-07-31T14:18:23;1.10;;;1.00;;
15706;SDS011;7953;54.302;10.128;2023-07-31T14:20:50;1.13;;;1.00;;
15706;SDS011;7953;54.302;10.128;2023-07-31T14:23:17;0.90;;;0.90;;
15706;SDS011;7953;54.302;10.128;2023-07-31T14:25:46;1.07;;;0.90;;
15706;SDS011;7953;54.302;10.128;2023-07-31T14:28:13;0.70;;;0.70;;
15706;SDS011;7953;54.302;10.128;2023-07-31T14:30:40;1.10;;;1.00;;
15706;SDS011;7953;54.302;10.128;2023-07-31T14:33:07;2.13;;;0.73;;
15706;SDS011;7953;54.302;10.128;2023-07-31T14:35:34;0.80;;;0.80;;
15706;SDS011;7953;54.302;10.128;2023-07-31T14:38:01;2.13;;;1.17;;
15706;SDS011;7953;54.302;10.128;2023-07-31T14:40:28;0.90;;;0.90;;
15706;SDS011;7953;54.302;10.128;2023-07-31T14:42:56;1.37;;;1.00;;
15706;SDS011;7953;54.302;10.128;2023-07-31T14:45:23;1.27;;;0.90;;
15706;SDS011;7953;54.302;10.128;2023-07-31T14:47:50;1.00;;;0.90;;
15706;SDS011;7953;54.302;10.128;2023-07-31T14:50:19;1.10;;;1.00;;